Airfield :
LOGIN :

Register | Disclaimer

   EN    FR    IT 

 










Legend :    VFR   Marginal VFR   IFR   Intensive IFR   Very Intensive IFR
Visi :
Ceiling :
>= 8 km
>= 3000ft
5 to 8 km
1000 to 3000 ft
1500m to 5 km
500 to 1000 ft
800 to 1500m
200 to 500 ft
< 800m
< 200 ft
Symbols :   Thunderstorms  Fog  Heavy snow  Heavy precipitations  Wind > 20 kt
SIGMETs :     Misc.  Thunderstorms  Icing  Turbulence  Mountain Waves  Volcanic Ashes







- Airport Elevation : 101 ft
- IATA code : GLO
- Download approach charts


EGBJ - Gloucestershire

CURRENT METAR :
  • 210920Z 03002KT 9999 FEW018 21/14 Q1014

EXPIRED METARs :
  • 210850Z 33003KT 9999 FEW018 19/15 Q1014
  • 210820Z 35002KT 9999 FEW018 19/14 Q1014
  • 210750Z 00000KT 8000 FEW015 17/15 Q1014
  • 210720Z 00000KT 8000 HZ SCT015 17/15 Q1014

TAF TAF EGBJ
Valid from the 21 at 09:00 until the 21 at 18:00 UTC


210756Z 2109/2118 VRB04KT 9999 SCT030
No reported NOTAMs for that airfield.



MET'MAP, your aeronautical weather chart ! - Copyright ORBIFLY December 2007 - Disclaimer

ORBIFLY MET'MAP TEAM :

Programming & Development : Alexandra Zaïnal
Concept & Development : Baudouin d'Aumeries
Co-Development & Prog : Marc-Olivier Méhu
Technical & hardware support : Manuel Goepfert

Contact : metmap@orbifly.com




SOURCES & CREDITS :

   NOAA